Sibley, IA (51249)

6:40 PM CDT on August 28, 2015 (GMT -0500)
APRSWXNET | | Change Station
CLOSE
Current Station
Personal Weather Station
Location: Ashton, IA
Elevation: 1469 ft
Nearby Weather Stations

Elev 1469 ft 43.31 °N, 95.79 °W | Updated 22 minutes ago

Overcast
Overcast
61 °F
Feels Like 61 °F
N
0
Wind Variable Wind from ENE
Gusts 0.0 mph

Today
High -- | Low -- °F
--% Chance of Precip.
Yesterday
High -- | Low -- °F
Precip. -- in
6:42 AM 8:05 PM
Waxing Gibbous, 99% visible
Pressure 29.95 in
Visibility 10.0 miles
Clouds Overcast 1000 ft
Dew Point 59 °F
Humidity 92%
Rainfall in
Snow Depth Not available.
UV 0 out of 12
Pollen 3.10 out of 12
Air Quality Not available.
Flu Activity Not available.
METAR KSHL 282335Z AUTO 05008KT 10SM OVC010 16/15 A2995 RMK AO2
Pressure 29.95 in
Visibility 10.0 miles
Clouds Overcast 1000 ft
Dew Point 59 °F
Humidity 92%
Rainfall in
Snow Depth Not available.
UV 0 out of 12
Pollen 3.10 out of 12
Air Quality Not available.
Flu Activity Not available.
METAR KSHL 282335Z AUTO 05008KT 10SM OVC010 16/15 A2995 RMK AO2

10-Day Weather Forecast

×

Almanac

Astronomy

Aug. 28, 2015 Rise Set
Actual Time
Civil Twilight
Nautical Twilight
Astronomical Twilight
Moon
Length of Visible Light
Length of Day
Tomorrow will be .
, % of the Moon is Illuminated

Today's Extremes

State Highs State Lows

Community

WunderPhotos

Upload Photos

1,850,532 photos uploaded!

WunderBlogs® & News

Nearby

Air Quality

  Air Quality AQ Index Pollutant
Not available.

Snow Depth

Station Depth Elevation

Earthquake Activity

City Distance Mag. Time & Date
Minimum magnitude displayed is 2.5.

Coastal Water Temperatures

Place Temperature

Stations

Nearby Weather Stations

Station Location Temp. Windchill Dew Point Humidity Wind Precip. Elev Updated Type